sensor_id;sensor_type;location;lat;lon;timestamp;temperature;humidity
54938;DHT22;52756;52.826;6.214;2024-02-14T00:00:19;7.70;93.00
54938;DHT22;52756;52.826;6.214;2024-02-14T00:02:44;7.60;93.00
54938;DHT22;52756;52.826;6.214;2024-02-14T00:05:10;7.70;93.10
54938;DHT22;52756;52.826;6.214;2024-02-14T00:07:39;7.70;93.10
54938;DHT22;52756;52.826;6.214;2024-02-14T00:10:06;7.70;93.20
54938;DHT22;52756;52.826;6.214;2024-02-14T00:12:35;7.70;93.20
54938;DHT22;52756;52.826;6.214;2024-02-14T00:15:05;7.70;93.20
54938;DHT22;52756;52.826;6.214;2024-02-14T00:17:33;7.70;93.30
54938;DHT22;52756;52.826;6.214;2024-02-14T00:20:02;7.70;93.30
54938;DHT22;52756;52.826;6.214;2024-02-14T00:22:29;7.70;93.40
54938;DHT22;52756;52.826;6.214;2024-02-14T00:24:55;7.80;93.40
54938;DHT22;52756;52.826;6.214;2024-02-14T00:27:21;7.70;93.40
54938;DHT22;52756;52.826;6.214;2024-02-14T00:29:46;7.80;93.50
54938;DHT22;52756;52.826;6.214;2024-02-14T00:32:13;7.80;93.50
54938;DHT22;52756;52.826;6.214;2024-02-14T00:34:38;7.80;93.50
54938;DHT22;52756;52.826;6.214;2024-02-14T00:37:04;7.80;93.50
54938;DHT22;52756;52.826;6.214;2024-02-14T00:39:30;7.80;93.60
54938;DHT22;52756;52.826;6.214;2024-02-14T00:41:55;7.90;93.60
54938;DHT22;52756;52.826;6.214;2024-02-14T00:44:21;8.40;93.80
54938;DHT22;52756;52.826;6.214;2024-02-14T00:46:47;7.80;93.60
54938;DHT22;52756;52.826;6.214;2024-02-14T00:49:16;7.90;93.70
54938;DHT22;52756;52.826;6.214;2024-02-14T00:51:42;7.90;93.70
54938;DHT22;52756;52.826;6.214;2024-02-14T00:54:07;7.90;93.70
54938;DHT22;52756;52.826;6.214;2024-02-14T00:56:34;7.90;93.80
54938;DHT22;52756;52.826;6.214;2024-02-14T00:58:59;7.90;93.80
54938;DHT22;52756;52.826;6.214;2024-02-14T01:01:25;8.00;93.80
54938;DHT22;52756;52.826;6.214;2024-02-14T01:03:51;7.90;93.80
54938;DHT22;52756;52.826;6.214;2024-02-14T01:06:16;8.00;93.90
54938;DHT22;52756;52.826;6.214;2024-02-14T01:08:43;7.90;93.80
54938;DHT22;52756;52.826;6.214;2024-02-14T01:11:09;8.40;94.00
54938;DHT22;52756;52.826;6.214;2024-02-14T01:13:35;8.00;93.90
54938;DHT22;52756;52.826;6.214;2024-02-14T01:16:00;8.00;94.00
54938;DHT22;52756;52.826;6.214;2024-02-14T01:18:26;8.00;94.00
54938;DHT22;52756;52.826;6.214;2024-02-14T01:20:52;8.10;94.00
54938;DHT22;52756;52.826;6.214;2024-02-14T01:23:19;8.10;94.00
54938;DHT22;52756;52.826;6.214;2024-02-14T01:25:45;8.10;94.30
54938;DHT22;52756;52.826;6.214;2024-02-14T01:28:11;8.10;94.10
54938;DHT22;52756;52.826;6.214;2024-02-14T01:30:36;8.10;94.10
54938;DHT22;52756;52.826;6.214;2024-02-14T01:33:02;8.10;94.10
54938;DHT22;52756;52.826;6.214;2024-02-14T01:35:30;8.20;94.20
54938;DHT22;52756;52.826;6.214;2024-02-14T01:37:56;8.80;94.40
54938;DHT22;52756;52.826;6.214;2024-02-14T01:40:23;8.20;94.20
54938;DHT22;52756;52.826;6.214;2024-02-14T01:42:48;8.20;94.30
54938;DHT22;52756;52.826;6.214;2024-02-14T01:45:15;8.20;94.30
54938;DHT22;52756;52.826;6.214;2024-02-14T01:47:40;8.30;94.30
54938;DHT22;52756;52.826;6.214;2024-02-14T01:50:08;8.30;94.30
54938;DHT22;52756;52.826;6.214;2024-02-14T01:52:39;8.30;94.40
54938;DHT22;52756;52.826;6.214;2024-02-14T01:55:07;8.30;94.40
54938;DHT22;52756;52.826;6.214;2024-02-14T01:57:33;8.30;94.40
54938;DHT22;52756;52.826;6.214;2024-02-14T02:00:01;8.40;94.40
54938;DHT22;52756;52.826;6.214;2024-02-14T02:02:34;8.40;94.40
54938;DHT22;52756;52.826;6.214;2024-02-14T02:05:02;8.40;94.50
54938;DHT22;52756;52.826;6.214;2024-02-14T02:07:28;8.40;94.40
54938;DHT22;52756;52.826;6.214;2024-02-14T02:09:54;8.50;94.50
54938;DHT22;52756;52.826;6.214;2024-02-14T02:12:19;8.50;94.50
54938;DHT22;52756;52.826;6.214;2024-02-14T02:14:45;8.50;94.50
54938;DHT22;52756;52.826;6.214;2024-02-14T02:17:11;8.50;94.50
54938;DHT22;52756;52.826;6.214;2024-02-14T02:19:38;8.50;94.50
54938;DHT22;52756;52.826;6.214;2024-02-14T02:22:04;8.50;94.50
54938;DHT22;52756;52.826;6.214;2024-02-14T02:24:30;8.50;94.50
54938;DHT22;52756;52.826;6.214;2024-02-14T02:26:56;8.60;94.60
54938;DHT22;52756;52.826;6.214;2024-02-14T02:29:22;8.60;94.60
54938;DHT22;52756;52.826;6.214;2024-02-14T02:31:48;8.60;94.60
54938;DHT22;52756;52.826;6.214;2024-02-14T02:34:13;8.60;94.60
54938;DHT22;52756;52.826;6.214;2024-02-14T02:36:40;8.60;94.60
54938;DHT22;52756;52.826;6.214;2024-02-14T02:39:06;8.70;94.60
54938;DHT22;52756;52.826;6.214;2024-02-14T02:41:33;8.70;94.60
54938;DHT22;52756;52.826;6.214;2024-02-14T02:44:00;8.70;94.60
54938;DHT22;52756;52.826;6.214;2024-02-14T02:46:27;8.70;94.60
54938;DHT22;52756;52.826;6.214;2024-02-14T02:48:52;8.70;94.60
54938;DHT22;52756;52.826;6.214;2024-02-14T02:51:20;8.70;94.60
54938;DHT22;52756;52.826;6.214;2024-02-14T02:53:46;8.70;94.60
54938;DHT22;52756;52.826;6.214;2024-02-14T02:56:12;8.70;94.70
54938;DHT22;52756;52.826;6.214;2024-02-14T02:58:40;8.80;94.70
54938;DHT22;52756;52.826;6.214;2024-02-14T03:01:08;8.80;94.70
54938;DHT22;52756;52.826;6.214;2024-02-14T03:03:34;8.80;94.70
54938;DHT22;52756;52.826;6.214;2024-02-14T03:06:03;8.80;94.70
54938;DHT22;52756;52.826;6.214;2024-02-14T03:08:29;8.80;94.70
54938;DHT22;52756;52.826;6.214;2024-02-14T03:11:01;8.80;94.70
54938;DHT22;52756;52.826;6.214;2024-02-14T03:13:27;8.90;94.80
54938;DHT22;52756;52.826;6.214;2024-02-14T03:15:53;8.90;94.80
54938;DHT22;52756;52.826;6.214;2024-02-14T03:18:24;8.90;94.80
54938;DHT22;52756;52.826;6.214;2024-02-14T03:20:49;8.90;94.80
54938;DHT22;52756;52.826;6.214;2024-02-14T03:23:19;8.90;94.90
54938;DHT22;52756;52.826;6.214;2024-02-14T03:25:45;8.90;94.90
54938;DHT22;52756;52.826;6.214;2024-02-14T03:28:10;8.90;94.90
54938;DHT22;52756;52.826;6.214;2024-02-14T03:30:38;8.90;94.90
54938;DHT22;52756;52.826;6.214;2024-02-14T03:33:07;9.00;94.90
54938;DHT22;52756;52.826;6.214;2024-02-14T03:35:35;9.00;95.00
54938;DHT22;52756;52.826;6.214;2024-02-14T03:38:02;9.00;95.00
54938;DHT22;52756;52.826;6.214;2024-02-14T03:40:27;9.00;95.00
54938;DHT22;52756;52.826;6.214;2024-02-14T03:42:56;9.00;95.00
54938;DHT22;52756;52.826;6.214;2024-02-14T03:45:22;9.10;95.10
54938;DHT22;52756;52.826;6.214;2024-02-14T03:47:48;9.10;95.10
54938;DHT22;52756;52.826;6.214;2024-02-14T03:50:13;9.70;95.30
54938;DHT22;52756;52.826;6.214;2024-02-14T03:52:40;9.10;95.10
54938;DHT22;52756;52.826;6.214;2024-02-14T03:55:08;9.10;95.10
54938;DHT22;52756;52.826;6.214;2024-02-14T03:57:39;9.20;95.20
54938;DHT22;52756;52.826;6.214;2024-02-14T04:00:05;9.20;95.20
54938;DHT22;52756;52.826;6.214;2024-02-14T04:02:34;9.20;95.20
54938;DHT22;52756;52.826;6.214;2024-02-14T04:05:00;9.20;95.20
54938;DHT22;52756;52.826;6.214;2024-02-14T04:07:26;9.20;95.20
54938;DHT22;52756;52.826;6.214;2024-02-14T04:09:51;9.30;95.30
54938;DHT22;52756;52.826;6.214;2024-02-14T04:12:17;9.30;95.30
54938;DHT22;52756;52.826;6.214;2024-02-14T04:14:43;9.30;95.30
54938;DHT22;52756;52.826;6.214;2024-02-14T04:17:09;9.40;95.40
54938;DHT22;52756;52.826;6.214;2024-02-14T04:19:36;9.40;95.30
54938;DHT22;52756;52.826;6.214;2024-02-14T04:22:02;9.40;95.40
54938;DHT22;52756;52.826;6.214;2024-02-14T04:24:27;9.40;95.40
54938;DHT22;52756;52.826;6.214;2024-02-14T04:26:53;9.40;95.40
54938;DHT22;52756;52.826;6.214;2024-02-14T04:29:20;9.40;95.40
54938;DHT22;52756;52.826;6.214;2024-02-14T04:31:46;9.40;95.40
54938;DHT22;52756;52.826;6.214;2024-02-14T04:34:12;9.50;95.50
54938;DHT22;52756;52.826;6.214;2024-02-14T04:36:39;9.50;95.40
54938;DHT22;52756;52.826;6.214;2024-02-14T04:39:06;9.50;95.50
54938;DHT22;52756;52.826;6.214;2024-02-14T04:41:32;10.20;95.60
54938;DHT22;52756;52.826;6.214;2024-02-14T04:44:03;9.50;95.50
54938;DHT22;52756;52.826;6.214;2024-02-14T04:46:29;9.50;95.50
54938;DHT22;52756;52.826;6.214;2024-02-14T04:48:55;9.50;95.50
54938;DHT22;52756;52.826;6.214;2024-02-14T04:51:20;9.60;95.50
54938;DHT22;52756;52.826;6.214;2024-02-14T04:53:46;9.60;95.50
54938;DHT22;52756;52.826;6.214;2024-02-14T04:56:12;9.70;95.60
54938;DHT22;52756;52.826;6.214;2024-02-14T04:58:37;9.70;95.60
54938;DHT22;52756;52.826;6.214;2024-02-14T05:01:03;9.70;95.60
54938;DHT22;52756;52.826;6.214;2024-02-14T05:03:28;9.70;95.60
54938;DHT22;52756;52.826;6.214;2024-02-14T05:05:54;9.80;95.60
54938;DHT22;52756;52.826;6.214;2024-02-14T05:08:20;9.80;95.60
54938;DHT22;52756;52.826;6.214;2024-02-14T05:10:46;9.80;95.60
54938;DHT22;52756;52.826;6.214;2024-02-14T05:13:11;9.90;95.70
54938;DHT22;52756;52.826;6.214;2024-02-14T05:15:38;9.90;95.60
54938;DHT22;52756;52.826;6.214;2024-02-14T05:18:04;9.90;95.60
54938;DHT22;52756;52.826;6.214;2024-02-14T05:20:31;9.90;95.60
54938;DHT22;52756;52.826;6.214;2024-02-14T05:22:57;9.90;95.70
54938;DHT22;52756;52.826;6.214;2024-02-14T05:25:23;9.90;95.70
54938;DHT22;52756;52.826;6.214;2024-02-14T05:27:49;9.90;95.70
54938;DHT22;52756;52.826;6.214;2024-02-14T05:30:14;10.00;95.70
54938;DHT22;52756;52.826;6.214;2024-02-14T05:32:40;9.90;95.70
54938;DHT22;52756;52.826;6.214;2024-02-14T05:35:06;10.00;95.70
54938;DHT22;52756;52.826;6.214;2024-02-14T05:37:31;10.00;95.70
54938;DHT22;52756;52.826;6.214;2024-02-14T05:39:57;10.00;95.70
54938;DHT22;52756;52.826;6.214;2024-02-14T05:42:23;10.00;95.70
54938;DHT22;52756;52.826;6.214;2024-02-14T05:44:48;10.60;95.90
54938;DHT22;52756;52.826;6.214;2024-02-14T05:47:14;10.10;95.80
54938;DHT22;52756;52.826;6.214;2024-02-14T05:49:40;10.10;95.80
54938;DHT22;52756;52.826;6.214;2024-02-14T05:52:07;10.10;95.80
54938;DHT22;52756;52.826;6.214;2024-02-14T05:54:33;10.10;95.80
54938;DHT22;52756;52.826;6.214;2024-02-14T05:56:59;10.10;95.80
54938;DHT22;52756;52.826;6.214;2024-02-14T05:59:26;10.10;95.80
54938;DHT22;52756;52.826;6.214;2024-02-14T06:01:52;10.20;95.80
54938;DHT22;52756;52.826;6.214;2024-02-14T06:04:18;10.20;95.80
54938;DHT22;52756;52.826;6.214;2024-02-14T06:06:44;10.20;95.90
54938;DHT22;52756;52.826;6.214;2024-02-14T06:09:09;10.30;95.90
54938;DHT22;52756;52.826;6.214;2024-02-14T06:11:37;10.20;95.90
54938;DHT22;52756;52.826;6.214;2024-02-14T06:14:05;10.20;95.80
54938;DHT22;52756;52.826;6.214;2024-02-14T06:16:32;10.30;95.90
54938;DHT22;52756;52.826;6.214;2024-02-14T06:18:57;10.30;95.90
54938;DHT22;52756;52.826;6.214;2024-02-14T06:21:23;10.30;95.90
54938;DHT22;52756;52.826;6.214;2024-02-14T06:23:48;10.30;95.90
54938;DHT22;52756;52.826;6.214;2024-02-14T06:26:14;10.30;95.90
54938;DHT22;52756;52.826;6.214;2024-02-14T06:28:40;10.40;95.90
54938;DHT22;52756;52.826;6.214;2024-02-14T06:31:05;10.40;95.90
54938;DHT22;52756;52.826;6.214;2024-02-14T06:33:31;10.40;95.90
54938;DHT22;52756;52.826;6.214;2024-02-14T06:35:57;10.40;95.90
54938;DHT22;52756;52.826;6.214;2024-02-14T06:38:24;10.40;95.90
54938;DHT22;52756;52.826;6.214;2024-02-14T06:40:49;10.40;95.90
54938;DHT22;52756;52.826;6.214;2024-02-14T06:43:15;10.40;95.90
54938;DHT22;52756;52.826;6.214;2024-02-14T06:45:41;10.40;95.90
54938;DHT22;52756;52.826;6.214;2024-02-14T06:48:07;10.40;95.90
54938;DHT22;52756;52.826;6.214;2024-02-14T06:50:34;10.40;95.90
54938;DHT22;52756;52.826;6.214;2024-02-14T06:53:00;10.40;95.90
54938;DHT22;52756;52.826;6.214;2024-02-14T06:55:29;10.60;96.00
54938;DHT22;52756;52.826;6.214;2024-02-14T06:58:00;10.40;95.90
54938;DHT22;52756;52.826;6.214;2024-02-14T07:00:26;10.40;95.90
54938;DHT22;52756;52.826;6.214;2024-02-14T07:02:53;10.40;95.90
54938;DHT22;52756;52.826;6.214;2024-02-14T07:05:19;10.40;95.90
54938;DHT22;52756;52.826;6.214;2024-02-14T07:07:45;10.40;95.90
54938;DHT22;52756;52.826;6.214;2024-02-14T07:10:11;10.40;95.80
54938;DHT22;52756;52.826;6.214;2024-02-14T07:12:38;10.40;95.80
54938;DHT22;52756;52.826;6.214;2024-02-14T07:15:05;10.40;95.90
54938;DHT22;52756;52.826;6.214;2024-02-14T07:17:31;10.40;95.90
54938;DHT22;52756;52.826;6.214;2024-02-14T07:19:58;10.40;95.80
54938;DHT22;52756;52.826;6.214;2024-02-14T07:22:23;10.40;95.80
54938;DHT22;52756;52.826;6.214;2024-02-14T07:24:49;10.80;96.00
54938;DHT22;52756;52.826;6.214;2024-02-14T07:27:15;10.40;95.80
54938;DHT22;52756;52.826;6.214;2024-02-14T07:29:42;10.40;95.90
54938;DHT22;52756;52.826;6.214;2024-02-14T07:32:08;10.40;95.90
54938;DHT22;52756;52.826;6.214;2024-02-14T07:34:34;10.40;95.90
54938;DHT22;52756;52.826;6.214;2024-02-14T07:36:59;10.40;95.90
54938;DHT22;52756;52.826;6.214;2024-02-14T07:39:25;10.40;95.90
54938;DHT22;52756;52.826;6.214;2024-02-14T07:41:51;10.40;95.90
54938;DHT22;52756;52.826;6.214;2024-02-14T07:44:17;10.50;95.90
54938;DHT22;52756;52.826;6.214;2024-02-14T07:46:42;10.80;96.00
54938;DHT22;52756;52.826;6.214;2024-02-14T07:49:08;10.50;96.10
54938;DHT22;52756;52.826;6.214;2024-02-14T07:51:35;10.50;95.90
54938;DHT22;52756;52.826;6.214;2024-02-14T07:54:04;10.50;95.90
54938;DHT22;52756;52.826;6.214;2024-02-14T07:56:29;10.50;95.90
54938;DHT22;52756;52.826;6.214;2024-02-14T07:58:58;10.50;95.90
54938;DHT22;52756;52.826;6.214;2024-02-14T08:01:25;10.50;95.90
54938;DHT22;52756;52.826;6.214;2024-02-14T08:03:51;10.60;95.90
54938;DHT22;52756;52.826;6.214;2024-02-14T08:06:17;10.50;95.90
54938;DHT22;52756;52.826;6.214;2024-02-14T08:08:42;10.60;95.90
54938;DHT22;52756;52.826;6.214;2024-02-14T08:11:09;10.70;96.00
54938;DHT22;52756;52.826;6.214;2024-02-14T08:13:35;11.10;96.20
54938;DHT22;52756;52.826;6.214;2024-02-14T08:16:02;10.60;95.90
54938;DHT22;52756;52.826;6.214;2024-02-14T08:18:28;10.60;96.00
54938;DHT22;52756;52.826;6.214;2024-02-14T08:20:53;10.60;96.00
54938;DHT22;52756;52.826;6.214;2024-02-14T08:23:19;10.60;96.00
54938;DHT22;52756;52.826;6.214;2024-02-14T08:25:46;10.60;96.00
54938;DHT22;52756;52.826;6.214;2024-02-14T08:28:11;10.70;96.00
54938;DHT22;52756;52.826;6.214;2024-02-14T08:30:37;10.70;96.00
54938;DHT22;52756;52.826;6.214;2024-02-14T08:33:03;10.70;96.00
54938;DHT22;52756;52.826;6.214;2024-02-14T08:35:29;10.70;96.00
54938;DHT22;52756;52.826;6.214;2024-02-14T08:37:54;10.90;96.00
54938;DHT22;52756;52.826;6.214;2024-02-14T08:40:20;10.70;96.00
54938;DHT22;52756;52.826;6.214;2024-02-14T08:42:46;10.80;96.00
54938;DHT22;52756;52.826;6.214;2024-02-14T08:45:12;10.80;96.00
54938;DHT22;52756;52.826;6.214;2024-02-14T08:47:38;10.70;96.00
54938;DHT22;52756;52.826;6.214;2024-02-14T08:50:04;11.10;96.10
54938;DHT22;52756;52.826;6.214;2024-02-14T08:52:30;10.80;96.00
54938;DHT22;52756;52.826;6.214;2024-02-14T08:54:55;10.80;96.00
54938;DHT22;52756;52.826;6.214;2024-02-14T08:57:21;10.80;96.00
54938;DHT22;52756;52.826;6.214;2024-02-14T08:59:51;10.80;96.00
54938;DHT22;52756;52.826;6.214;2024-02-14T09:02:16;11.00;96.10
54938;DHT22;52756;52.826;6.214;2024-02-14T09:04:42;10.80;96.00
54938;DHT22;52756;52.826;6.214;2024-02-14T09:07:09;10.80;96.00
54938;DHT22;52756;52.826;6.214;2024-02-14T09:09:35;10.90;96.10
54938;DHT22;52756;52.826;6.214;2024-02-14T09:12:00;11.30;96.20
54938;DHT22;52756;52.826;6.214;2024-02-14T09:14:29;10.90;96.00
54938;DHT22;52756;52.826;6.214;2024-02-14T09:16:58;10.90;96.00
54938;DHT22;52756;52.826;6.214;2024-02-14T09:19:24;11.10;96.10
54938;DHT22;52756;52.826;6.214;2024-02-14T09:21:51;10.90;96.00
54938;DHT22;52756;52.826;6.214;2024-02-14T09:24:16;11.00;96.10
54938;DHT22;52756;52.826;6.214;2024-02-14T09:26:42;10.90;96.10
54938;DHT22;52756;52.826;6.214;2024-02-14T09:29:08;11.00;96.10
54938;DHT22;52756;52.826;6.214;2024-02-14T09:31:38;11.00;96.10
54938;DHT22;52756;52.826;6.214;2024-02-14T09:34:04;11.00;96.10
54938;DHT22;52756;52.826;6.214;2024-02-14T09:36:29;11.00;96.10
54938;DHT22;52756;52.826;6.214;2024-02-14T09:38:56;11.00;96.10
54938;DHT22;52756;52.826;6.214;2024-02-14T09:41:30;11.00;96.10
54938;DHT22;52756;52.826;6.214;2024-02-14T09:43:56;11.10;96.10
54938;DHT22;52756;52.826;6.214;2024-02-14T09:46:24;11.20;96.10
54938;DHT22;52756;52.826;6.214;2024-02-14T09:48:52;11.10;96.10
54938;DHT22;52756;52.826;6.214;2024-02-14T09:51:19;11.10;96.10
54938;DHT22;52756;52.826;6.214;2024-02-14T09:53:46;11.10;96.10
54938;DHT22;52756;52.826;6.214;2024-02-14T09:56:12;11.10;96.10
54938;DHT22;52756;52.826;6.214;2024-02-14T09:58:41;11.10;96.10
54938;DHT22;52756;52.826;6.214;2024-02-14T10:01:07;11.10;96.10
54938;DHT22;52756;52.826;6.214;2024-02-14T10:03:33;11.10;96.00
54938;DHT22;52756;52.826;6.214;2024-02-14T10:06:00;11.20;96.10
54938;DHT22;52756;52.826;6.214;2024-02-14T10:08:26;11.80;96.20
54938;DHT22;52756;52.826;6.214;2024-02-14T10:10:53;11.20;96.00
54938;DHT22;52756;52.826;6.214;2024-02-14T10:13:18;11.20;96.00
54938;DHT22;52756;52.826;6.214;2024-02-14T10:15:45;11.40;96.10
54938;DHT22;52756;52.826;6.214;2024-02-14T10:18:10;11.20;96.00
54938;DHT22;52756;52.826;6.214;2024-02-14T10:20:36;11.70;96.10
54938;DHT22;52756;52.826;6.214;2024-02-14T10:23:10;11.20;96.00
54938;DHT22;52756;52.826;6.214;2024-02-14T10:25:39;11.30;96.00
54938;DHT22;52756;52.826;6.214;2024-02-14T10:28:05;11.30;96.00
54938;DHT22;52756;52.826;6.214;2024-02-14T10:30:37;11.30;96.00
54938;DHT22;52756;52.826;6.214;2024-02-14T10:33:05;11.30;96.00
54938;DHT22;52756;52.826;6.214;2024-02-14T10:35:33;11.30;96.00
54938;DHT22;52756;52.826;6.214;2024-02-14T10:38:02;11.30;96.00
54938;DHT22;52756;52.826;6.214;2024-02-14T10:40:29;11.40;96.10
54938;DHT22;52756;52.826;6.214;2024-02-14T10:42:56;11.40;96.20
54938;DHT22;52756;52.826;6.214;2024-02-14T10:45:27;11.40;96.00
54938;DHT22;52756;52.826;6.214;2024-02-14T10:47:53;11.40;96.00
54938;DHT22;52756;52.826;6.214;2024-02-14T10:50:24;11.40;96.00
54938;DHT22;52756;52.826;6.214;2024-02-14T10:52:57;11.40;96.00
54938;DHT22;52756;52.826;6.214;2024-02-14T10:55:24;11.50;96.10
54938;DHT22;52756;52.826;6.214;2024-02-14T10:57:53;11.50;96.10
54938;DHT22;52756;52.826;6.214;2024-02-14T11:00:20;11.50;96.10
54938;DHT22;52756;52.826;6.214;2024-02-14T11:02:46;11.50;96.10
54938;DHT22;52756;52.826;6.214;2024-02-14T11:05:13;11.70;96.10
54938;DHT22;52756;52.826;6.214;2024-02-14T11:07:46;12.10;96.20
54938;DHT22;52756;52.826;6.214;2024-02-14T11:10:16;11.60;96.10
54938;DHT22;52756;52.826;6.214;2024-02-14T11:12:43;11.60;96.10
54938;DHT22;52756;52.826;6.214;2024-02-14T11:17:43;11.60;96.00
54938;DHT22;52756;52.826;6.214;2024-02-14T11:20:34;11.70;96.00
54938;DHT22;52756;52.826;6.214;2024-02-14T11:23:04;11.70;96.00
54938;DHT22;52756;52.826;6.214;2024-02-14T11:25:32;11.70;96.00
54938;DHT22;52756;52.826;6.214;2024-02-14T11:28:00;11.70;95.90
54938;DHT22;52756;52.826;6.214;2024-02-14T11:30:35;11.70;95.90
54938;DHT22;52756;52.826;6.214;2024-02-14T11:33:20;11.70;95.90
54938;DHT22;52756;52.826;6.214;2024-02-14T11:36:09;11.70;95.90
54938;DHT22;52756;52.826;6.214;2024-02-14T11:38:35;11.70;95.80
54938;DHT22;52756;52.826;6.214;2024-02-14T11:41:02;11.70;95.80
54938;DHT22;52756;52.826;6.214;2024-02-14T11:43:29;11.70;95.70
54938;DHT22;52756;52.826;6.214;2024-02-14T11:45:55;11.70;95.70
54938;DHT22;52756;52.826;6.214;2024-02-14T11:48:21;11.90;95.80
54938;DHT22;52756;52.826;6.214;2024-02-14T11:50:49;11.80;95.80
54938;DHT22;52756;52.826;6.214;2024-02-14T11:53:17;11.80;95.80
54938;DHT22;52756;52.826;6.214;2024-02-14T11:55:44;11.80;95.70
54938;DHT22;52756;52.826;6.214;2024-02-14T11:58:16;11.90;95.80
54938;DHT22;52756;52.826;6.214;2024-02-14T12:00:43;11.80;95.70
54938;DHT22;52756;52.826;6.214;2024-02-14T12:03:21;11.90;95.70
54938;DHT22;52756;52.826;6.214;2024-02-14T12:05:52;11.90;95.70
54938;DHT22;52756;52.826;6.214;2024-02-14T12:08:18;11.90;95.70
54938;DHT22;52756;52.826;6.214;2024-02-14T12:10:46;11.90;95.70
54938;DHT22;52756;52.826;6.214;2024-02-14T12:13:22;11.90;95.80
54938;DHT22;52756;52.826;6.214;2024-02-14T12:15:49;12.00;95.70
54938;DHT22;52756;52.826;6.214;2024-02-14T12:18:17;11.90;95.70
54938;DHT22;52756;52.826;6.214;2024-02-14T12:20:44;12.00;95.70
54938;DHT22;52756;52.826;6.214;2024-02-14T12:23:17;12.00;95.60
54938;DHT22;52756;52.826;6.214;2024-02-14T12:25:43;12.00;95.60
54938;DHT22;52756;52.826;6.214;2024-02-14T12:28:16;12.00;95.60
54938;DHT22;52756;52.826;6.214;2024-02-14T12:30:50;12.00;95.60
54938;DHT22;52756;52.826;6.214;2024-02-14T12:33:17;12.00;95.60
54938;DHT22;52756;52.826;6.214;2024-02-14T12:35:51;12.00;95.60
54938;DHT22;52756;52.826;6.214;2024-02-14T12:38:19;12.10;95.60
54938;DHT22;52756;52.826;6.214;2024-02-14T12:40:45;12.10;95.60
54938;DHT22;52756;52.826;6.214;2024-02-14T12:43:11;12.10;95.60
54938;DHT22;52756;52.826;6.214;2024-02-14T12:45:38;12.10;95.60
54938;DHT22;52756;52.826;6.214;2024-02-14T12:48:05;12.80;95.70
54938;DHT22;52756;52.826;6.214;2024-02-14T12:50:31;12.10;95.50
54938;DHT22;52756;52.826;6.214;2024-02-14T12:52:57;12.10;95.50
54938;DHT22;52756;52.826;6.214;2024-02-14T12:55:24;13.00;95.70
54938;DHT22;52756;52.826;6.214;2024-02-14T12:57:51;12.10;95.50
54938;DHT22;52756;52.826;6.214;2024-02-14T13:00:17;12.10;95.50
54938;DHT22;52756;52.826;6.214;2024-02-14T13:02:43;12.10;95.40
54938;DHT22;52756;52.826;6.214;2024-02-14T13:05:09;12.10;95.40
54938;DHT22;52756;52.826;6.214;2024-02-14T13:07:35;12.50;95.50
54938;DHT22;52756;52.826;6.214;2024-02-14T13:10:01;12.20;95.40
54938;DHT22;52756;52.826;6.214;2024-02-14T13:12:28;12.20;95.40
54938;DHT22;52756;52.826;6.214;2024-02-14T13:14:54;12.20;95.40
54938;DHT22;52756;52.826;6.214;2024-02-14T13:17:20;12.20;95.40
54938;DHT22;52756;52.826;6.214;2024-02-14T13:19:45;12.20;95.40
54938;DHT22;52756;52.826;6.214;2024-02-14T13:22:13;12.20;95.40
54938;DHT22;52756;52.826;6.214;2024-02-14T13:24:39;12.20;95.40
54938;DHT22;52756;52.826;6.214;2024-02-14T13:27:05;12.20;95.40
54938;DHT22;52756;52.826;6.214;2024-02-14T13:29:31;12.30;95.40
54938;DHT22;52756;52.826;6.214;2024-02-14T13:31:56;12.20;95.40
54938;DHT22;52756;52.826;6.214;2024-02-14T13:34:22;12.30;95.40
54938;DHT22;52756;52.826;6.214;2024-02-14T13:36:47;12.20;95.40
54938;DHT22;52756;52.826;6.214;2024-02-14T13:39:13;12.20;95.40
54938;DHT22;52756;52.826;6.214;2024-02-14T13:41:42;12.20;95.30
54938;DHT22;52756;52.826;6.214;2024-02-14T13:44:10;12.20;95.40
54938;DHT22;52756;52.826;6.214;2024-02-14T13:46:36;12.30;95.40
54938;DHT22;52756;52.826;6.214;2024-02-14T13:49:02;12.20;95.40
54938;DHT22;52756;52.826;6.214;2024-02-14T13:51:27;12.20;95.40
54938;DHT22;52756;52.826;6.214;2024-02-14T13:53:53;12.20;95.40
54938;DHT22;52756;52.826;6.214;2024-02-14T13:56:19;12.20;95.40
54938;DHT22;52756;52.826;6.214;2024-02-14T13:58:51;12.20;95.40
54938;DHT22;52756;52.826;6.214;2024-02-14T14:01:16;12.20;95.50
54938;DHT22;52756;52.826;6.214;2024-02-14T14:03:43;12.20;95.50
54938;DHT22;52756;52.826;6.214;2024-02-14T14:06:08;12.20;95.50
54938;DHT22;52756;52.826;6.214;2024-02-14T14:08:35;12.20;95.50
54938;DHT22;52756;52.826;6.214;2024-02-14T14:11:02;12.20;95.50
54938;DHT22;52756;52.826;6.214;2024-02-14T14:13:29;12.20;95.60
54938;DHT22;52756;52.826;6.214;2024-02-14T14:16:01;12.20;95.50
54938;DHT22;52756;52.826;6.214;2024-02-14T14:18:26;12.20;95.60
54938;DHT22;52756;52.826;6.214;2024-02-14T14:20:52;12.20;95.60
54938;DHT22;52756;52.826;6.214;2024-02-14T14:23:18;12.20;95.60
54938;DHT22;52756;52.826;6.214;2024-02-14T14:25:44;12.20;95.80
54938;DHT22;52756;52.826;6.214;2024-02-14T14:28:09;12.20;95.60
54938;DHT22;52756;52.826;6.214;2024-02-14T14:30:38;12.20;95.60
54938;DHT22;52756;52.826;6.214;2024-02-14T14:33:04;12.20;95.60
54938;DHT22;52756;52.826;6.214;2024-02-14T14:35:30;12.20;95.60
54938;DHT22;52756;52.826;6.214;2024-02-14T14:38:05;12.20;95.60
54938;DHT22;52756;52.826;6.214;2024-02-14T14:40:30;12.20;95.60
54938;DHT22;52756;52.826;6.214;2024-02-14T14:42:56;12.20;95.60
54938;DHT22;52756;52.826;6.214;2024-02-14T14:45:22;12.10;95.60
54938;DHT22;52756;52.826;6.214;2024-02-14T14:47:48;12.20;95.70
54938;DHT22;52756;52.826;6.214;2024-02-14T14:50:14;12.20;95.90
54938;DHT22;52756;52.826;6.214;2024-02-14T14:52:41;12.20;95.70
54938;DHT22;52756;52.826;6.214;2024-02-14T14:55:09;12.20;95.70
54938;DHT22;52756;52.826;6.214;2024-02-14T14:57:35;12.20;95.70
54938;DHT22;52756;52.826;6.214;2024-02-14T15:00:15;12.20;95.70
54938;DHT22;52756;52.826;6.214;2024-02-14T15:02:43;12.20;95.80
54938;DHT22;52756;52.826;6.214;2024-02-14T15:05:10;12.20;95.70
54938;DHT22;52756;52.826;6.214;2024-02-14T15:07:37;12.20;95.70
54938;DHT22;52756;52.826;6.214;2024-02-14T15:10:04;12.20;95.70
54938;DHT22;52756;52.826;6.214;2024-02-14T15:12:30;12.10;95.70
54938;DHT22;52756;52.826;6.214;2024-02-14T15:14:56;12.20;95.70
54938;DHT22;52756;52.826;6.214;2024-02-14T15:17:22;12.10;95.70
54938;DHT22;52756;52.826;6.214;2024-02-14T15:19:51;12.50;95.80
54938;DHT22;52756;52.826;6.214;2024-02-14T15:22:16;12.20;95.80
54938;DHT22;52756;52.826;6.214;2024-02-14T15:24:42;12.20;95.80
54938;DHT22;52756;52.826;6.214;2024-02-14T15:27:09;12.10;95.70
54938;DHT22;52756;52.826;6.214;2024-02-14T15:29:36;12.10;95.70
54938;DHT22;52756;52.826;6.214;2024-02-14T15:32:21;12.20;95.80
54938;DHT22;52756;52.826;6.214;2024-02-14T15:35:06;12.20;95.80